Bookmark and Share
Track history (hours):
 

Hawk

Last reported at 2014-Apr-13 14:33 UTC. Time now 2014-Apr-18 03:13 UTC.
Position N 22°28' E 117°11'.

Length 223 m; draft 8.4 m.

Type: Cargo ship. MMSI: 259848000.

NotesDate/timePositionNaut miles runAvg speedWind from/ knotsBaromVisibWave heightAir tempDewpointWater temp
2014-Apr-13 14:33N 22°28' E 117°11'1312.8
2014-Apr-13 13:33N 22°40' E 117°16'1212.5
2014-Apr-13 12:33N 22°52' E 117°21'1312.5
2014-Apr-13 11:32N 23°04' E 117°26'1712.4
2014-Apr-13 10:10N 23°20' E 117°32'712.2
2014-Apr-13 09:34N 23°26' E 117°37'1313.2
2014-Apr-13 08:33N 23°34' E 117°49'1413.5
2014-Apr-13 07:32N 23°42' E 118°01'1413.7
2014-Apr-13 06:33N 23°50' E 118°13'1414.0
2014-Apr-13 05:33N 23°58' E 118°25'1414.1
2014-Apr-13 04:33N 24°07' E 118°38'1914.1
2014-Apr-13 03:12N 24°18' E 118°54'2212.9
2014-Apr-13 01:30N 24°31' E 119°14'1412.2
2014-Apr-13 00:21N 24°40' E 119°25'34112.3
2014-Apr-11 20:33N 29°10' E 123°19'9212.7
2014-Apr-11 13:18N 30°42' E 123°20'911.8
2014-Apr-11 12:33N 30°51' E 123°20'1312.1
2014-Apr-11 11:31N 31°04' E 123°20'1212.2
2014-Apr-11 10:33N 31°16' E 123°20'6913.1
2014-Apr-11 05:15N 32°25' E 123°20'1512.6
2014-Apr-11 04:05N 32°40' E 123°20'2212.0
2014-Apr-11 02:14N 33°02' E 123°20'1112.0
2014-Apr-11 01:18N 33°13' E 123°20'912.0
2014-Apr-11 00:33N 33°22' E 123°20'3012.8
2014-Apr-10 22:10N 33°53' E 123°20'2012.1
2014-Apr-10 20:30N 34°10' E 123°07'2613.2
2014-Apr-10 18:32N 34°26' E 122°43'13612.3
2014-Apr-10 07:30N 35°57' E 120°39'1111.3
2014-Apr-10 06:33N 35°60' E 120°26'8 8.0
2014-Apr-10 05:33N 36°01' E 120°17'  

Dump ship's entire track history

sailing weather and tide predictions

Hawk — LAGF7 — position and weather